sensor_id;sensor_type;location;lat;lon;timestamp;temperature;humidity
4828;DHT22;2428;48.732;9.148;2023-06-22T00:00:50;21.40;99.90
4828;DHT22;2428;48.732;9.148;2023-06-22T00:03:17;21.20;99.90
4828;DHT22;2428;48.732;9.148;2023-06-22T00:05:42;21.20;99.90
4828;DHT22;2428;48.732;9.148;2023-06-22T00:08:08;21.20;99.90
4828;DHT22;2428;48.732;9.148;2023-06-22T00:10:33;21.10;99.90
4828;DHT22;2428;48.732;9.148;2023-06-22T00:13:00;21.10;99.90
4828;DHT22;2428;48.732;9.148;2023-06-22T00:15:26;21.10;99.90
4828;DHT22;2428;48.732;9.148;2023-06-22T00:17:51;21.10;99.90
4828;DHT22;2428;48.732;9.148;2023-06-22T00:20:17;21.00;99.90
4828;DHT22;2428;48.732;9.148;2023-06-22T00:22:44;21.10;99.90
4828;DHT22;2428;48.732;9.148;2023-06-22T00:25:10;21.10;99.90
4828;DHT22;2428;48.732;9.148;2023-06-22T00:27:36;21.10;99.90
4828;DHT22;2428;48.732;9.148;2023-06-22T00:30:02;21.10;99.90
4828;DHT22;2428;48.732;9.148;2023-06-22T00:32:28;21.10;99.90
4828;DHT22;2428;48.732;9.148;2023-06-22T00:34:53;21.10;99.90
4828;DHT22;2428;48.732;9.148;2023-06-22T00:37:19;21.20;99.90
4828;DHT22;2428;48.732;9.148;2023-06-22T00:39:44;21.10;99.90
4828;DHT22;2428;48.732;9.148;2023-06-22T00:42:10;21.10;99.90
4828;DHT22;2428;48.732;9.148;2023-06-22T00:44:36;21.00;99.90
4828;DHT22;2428;48.732;9.148;2023-06-22T00:47:03;21.00;99.90
4828;DHT22;2428;48.732;9.148;2023-06-22T00:49:29;21.00;99.90
4828;DHT22;2428;48.732;9.148;2023-06-22T00:51:55;21.10;99.90
4828;DHT22;2428;48.732;9.148;2023-06-22T00:54:21;21.10;99.90
4828;DHT22;2428;48.732;9.148;2023-06-22T00:56:52;21.10;99.90
4828;DHT22;2428;48.732;9.148;2023-06-22T00:59:20;21.00;99.90
4828;DHT22;2428;48.732;9.148;2023-06-22T01:01:46;21.00;99.90
4828;DHT22;2428;48.732;9.148;2023-06-22T01:04:12;21.00;99.90
4828;DHT22;2428;48.732;9.148;2023-06-22T01:07:25;20.90;99.90
4828;DHT22;2428;48.732;9.148;2023-06-22T01:10:43;20.90;99.90
4828;DHT22;2428;48.732;9.148;2023-06-22T01:12:53;20.80;99.90
4828;DHT22;2428;48.732;9.148;2023-06-22T01:15:28;20.90;99.90
4828;DHT22;2428;48.732;9.148;2023-06-22T01:17:56;20.70;99.90
4828;DHT22;2428;48.732;9.148;2023-06-22T01:20:23;20.80;99.90
4828;DHT22;2428;48.732;9.148;2023-06-22T01:23:07;20.70;99.90
4828;DHT22;2428;48.732;9.148;2023-06-22T01:25:48;20.70;99.90
4828;DHT22;2428;48.732;9.148;2023-06-22T01:28:45;20.70;99.90
4828;DHT22;2428;48.732;9.148;2023-06-22T01:31:13;20.60;99.90
4828;DHT22;2428;48.732;9.148;2023-06-22T01:33:42;20.60;99.90
4828;DHT22;2428;48.732;9.148;2023-06-22T01:36:09;20.70;99.90
4828;DHT22;2428;48.732;9.148;2023-06-22T01:38:34;20.50;99.90
4828;DHT22;2428;48.732;9.148;2023-06-22T01:41:02;20.60;99.90
4828;DHT22;2428;48.732;9.148;2023-06-22T01:43:28;20.50;99.90
4828;DHT22;2428;48.732;9.148;2023-06-22T01:45:56;20.50;99.90
4828;DHT22;2428;48.732;9.148;2023-06-22T01:48:22;20.40;99.90
4828;DHT22;2428;48.732;9.148;2023-06-22T01:50:49;20.40;99.90
4828;DHT22;2428;48.732;9.148;2023-06-22T01:53:14;20.40;99.90
4828;DHT22;2428;48.732;9.148;2023-06-22T01:55:40;20.40;99.90
4828;DHT22;2428;48.732;9.148;2023-06-22T01:58:05;20.40;99.90
4828;DHT22;2428;48.732;9.148;2023-06-22T02:00:37;20.40;99.90
4828;DHT22;2428;48.732;9.148;2023-06-22T02:03:24;20.30;99.90
4828;DHT22;2428;48.732;9.148;2023-06-22T02:06:16;20.30;99.90
4828;DHT22;2428;48.732;9.148;2023-06-22T02:09:05;20.30;99.90
4828;DHT22;2428;48.732;9.148;2023-06-22T02:11:32;20.30;99.90
4828;DHT22;2428;48.732;9.148;2023-06-22T02:13:59;20.20;99.90
4828;DHT22;2428;48.732;9.148;2023-06-22T02:16:25;20.20;99.90
4828;DHT22;2428;48.732;9.148;2023-06-22T02:18:55;20.20;99.90
4828;DHT22;2428;48.732;9.148;2023-06-22T02:21:23;20.20;99.90
4828;DHT22;2428;48.732;9.148;2023-06-22T02:23:49;20.10;99.90
4828;DHT22;2428;48.732;9.148;2023-06-22T02:26:17;20.20;99.90
4828;DHT22;2428;48.732;9.148;2023-06-22T02:28:43;20.20;99.90
4828;DHT22;2428;48.732;9.148;2023-06-22T02:31:09;20.10;99.90
4828;DHT22;2428;48.732;9.148;2023-06-22T02:33:34;20.20;99.90
4828;DHT22;2428;48.732;9.148;2023-06-22T02:36:00;20.10;99.90
4828;DHT22;2428;48.732;9.148;2023-06-22T02:38:31;20.10;99.90
4828;DHT22;2428;48.732;9.148;2023-06-22T02:40:59;20.10;99.90
4828;DHT22;2428;48.732;9.148;2023-06-22T02:43:25;20.10;99.90
4828;DHT22;2428;48.732;9.148;2023-06-22T02:45:51;20.10;99.90
4828;DHT22;2428;48.732;9.148;2023-06-22T02:48:16;20.10;99.90
4828;DHT22;2428;48.732;9.148;2023-06-22T02:50:42;20.10;99.90
4828;DHT22;2428;48.732;9.148;2023-06-22T02:53:07;20.10;99.90
4828;DHT22;2428;48.732;9.148;2023-06-22T02:55:33;20.10;99.90
4828;DHT22;2428;48.732;9.148;2023-06-22T02:57:58;20.10;99.90
4828;DHT22;2428;48.732;9.148;2023-06-22T03:00:25;20.10;99.90
4828;DHT22;2428;48.732;9.148;2023-06-22T03:02:56;20.10;99.90
4828;DHT22;2428;48.732;9.148;2023-06-22T03:05:22;20.10;99.90
4828;DHT22;2428;48.732;9.148;2023-06-22T03:07:48;20.00;99.90
4828;DHT22;2428;48.732;9.148;2023-06-22T03:10:15;20.00;99.90
4828;DHT22;2428;48.732;9.148;2023-06-22T03:12:42;20.00;99.90
4828;DHT22;2428;48.732;9.148;2023-06-22T03:15:09;19.90;99.90
4828;DHT22;2428;48.732;9.148;2023-06-22T03:17:36;19.90;99.90
4828;DHT22;2428;48.732;9.148;2023-06-22T03:20:05;19.90;99.90
4828;DHT22;2428;48.732;9.148;2023-06-22T03:22:41;19.80;99.90
4828;DHT22;2428;48.732;9.148;2023-06-22T03:25:08;19.80;99.90
4828;DHT22;2428;48.732;9.148;2023-06-22T03:27:42;19.80;99.90
4828;DHT22;2428;48.732;9.148;2023-06-22T03:30:11;19.80;99.90
4828;DHT22;2428;48.732;9.148;2023-06-22T03:32:37;19.80;99.90
4828;DHT22;2428;48.732;9.148;2023-06-22T03:35:03;19.80;99.90
4828;DHT22;2428;48.732;9.148;2023-06-22T03:37:29;19.70;99.90
4828;DHT22;2428;48.732;9.148;2023-06-22T03:39:55;19.70;99.90
4828;DHT22;2428;48.732;9.148;2023-06-22T03:42:20;19.70;99.90
4828;DHT22;2428;48.732;9.148;2023-06-22T03:44:46;19.60;99.90
4828;DHT22;2428;48.732;9.148;2023-06-22T03:47:12;19.60;99.90
4828;DHT22;2428;48.732;9.148;2023-06-22T03:49:38;19.70;99.90
4828;DHT22;2428;48.732;9.148;2023-06-22T03:52:04;19.70;99.90
4828;DHT22;2428;48.732;9.148;2023-06-22T03:54:30;19.70;99.90
4828;DHT22;2428;48.732;9.148;2023-06-22T03:56:59;19.70;99.90
4828;DHT22;2428;48.732;9.148;2023-06-22T03:59:25;19.60;99.90
4828;DHT22;2428;48.732;9.148;2023-06-22T04:01:51;19.60;99.90
4828;DHT22;2428;48.732;9.148;2023-06-22T04:04:19;19.60;99.90
4828;DHT22;2428;48.732;9.148;2023-06-22T04:06:45;19.70;99.90
4828;DHT22;2428;48.732;9.148;2023-06-22T04:09:10;19.70;99.90
4828;DHT22;2428;48.732;9.148;2023-06-22T04:11:36;19.70;99.90
4828;DHT22;2428;48.732;9.148;2023-06-22T04:14:02;19.70;99.90
4828;DHT22;2428;48.732;9.148;2023-06-22T04:16:27;19.70;99.90
4828;DHT22;2428;48.732;9.148;2023-06-22T04:18:53;19.70;99.90
4828;DHT22;2428;48.732;9.148;2023-06-22T04:21:19;19.70;99.90
4828;DHT22;2428;48.732;9.148;2023-06-22T04:23:47;19.80;99.90
4828;DHT22;2428;48.732;9.148;2023-06-22T04:26:14;19.80;99.90
4828;DHT22;2428;48.732;9.148;2023-06-22T04:28:40;20.00;99.90
4828;DHT22;2428;48.732;9.148;2023-06-22T04:31:06;19.90;99.90
4828;DHT22;2428;48.732;9.148;2023-06-22T04:33:31;19.90;99.90
4828;DHT22;2428;48.732;9.148;2023-06-22T04:35:58;19.90;99.90
4828;DHT22;2428;48.732;9.148;2023-06-22T04:38:24;20.00;99.90
4828;DHT22;2428;48.732;9.148;2023-06-22T04:40:50;20.00;99.90
4828;DHT22;2428;48.732;9.148;2023-06-22T04:43:16;20.00;99.90
4828;DHT22;2428;48.732;9.148;2023-06-22T04:45:42;20.00;99.90
4828;DHT22;2428;48.732;9.148;2023-06-22T04:48:07;20.10;99.90
4828;DHT22;2428;48.732;9.148;2023-06-22T04:50:36;20.10;99.90
4828;DHT22;2428;48.732;9.148;2023-06-22T04:53:03;20.20;99.90
4828;DHT22;2428;48.732;9.148;2023-06-22T04:55:33;20.20;99.90
4828;DHT22;2428;48.732;9.148;2023-06-22T04:57:59;20.20;99.90
4828;DHT22;2428;48.732;9.148;2023-06-22T05:00:31;20.20;99.90
4828;DHT22;2428;48.732;9.148;2023-06-22T05:02:56;20.20;99.90
4828;DHT22;2428;48.732;9.148;2023-06-22T05:05:23;20.30;99.90
4828;DHT22;2428;48.732;9.148;2023-06-22T05:07:50;20.30;99.90
4828;DHT22;2428;48.732;9.148;2023-06-22T05:10:18;20.40;99.90
4828;DHT22;2428;48.732;9.148;2023-06-22T05:12:45;20.40;99.90
4828;DHT22;2428;48.732;9.148;2023-06-22T05:15:11;20.50;99.90
4828;DHT22;2428;48.732;9.148;2023-06-22T05:17:37;20.60;99.90
4828;DHT22;2428;48.732;9.148;2023-06-22T05:20:09;20.60;99.90
4828;DHT22;2428;48.732;9.148;2023-06-22T05:22:35;20.70;99.90
4828;DHT22;2428;48.732;9.148;2023-06-22T05:25:00;20.80;99.90
4828;DHT22;2428;48.732;9.148;2023-06-22T05:27:26;20.80;99.90
4828;DHT22;2428;48.732;9.148;2023-06-22T05:29:51;20.90;99.90
4828;DHT22;2428;48.732;9.148;2023-06-22T05:32:17;20.90;99.90
4828;DHT22;2428;48.732;9.148;2023-06-22T05:34:44;20.90;99.90
4828;DHT22;2428;48.732;9.148;2023-06-22T05:37:10;21.00;99.90
4828;DHT22;2428;48.732;9.148;2023-06-22T05:39:35;21.10;99.90
4828;DHT22;2428;48.732;9.148;2023-06-22T05:42:07;21.10;99.90
4828;DHT22;2428;48.732;9.148;2023-06-22T05:44:33;21.10;99.90
4828;DHT22;2428;48.732;9.148;2023-06-22T05:46:59;21.20;99.90
4828;DHT22;2428;48.732;9.148;2023-06-22T05:49:24;21.30;99.90
4828;DHT22;2428;48.732;9.148;2023-06-22T05:51:55;21.30;99.90
4828;DHT22;2428;48.732;9.148;2023-06-22T05:54:20;21.30;99.90
4828;DHT22;2428;48.732;9.148;2023-06-22T05:56:46;21.40;99.90
4828;DHT22;2428;48.732;9.148;2023-06-22T05:59:12;21.40;99.90
4828;DHT22;2428;48.732;9.148;2023-06-22T06:01:37;21.40;99.90
4828;DHT22;2428;48.732;9.148;2023-06-22T06:04:03;21.40;99.90
4828;DHT22;2428;48.732;9.148;2023-06-22T06:06:29;21.40;99.90
4828;DHT22;2428;48.732;9.148;2023-06-22T06:08:55;21.50;99.90
4828;DHT22;2428;48.732;9.148;2023-06-22T06:11:22;21.50;99.90
4828;DHT22;2428;48.732;9.148;2023-06-22T06:13:47;21.50;99.90
4828;DHT22;2428;48.732;9.148;2023-06-22T06:16:13;21.40;99.90
4828;DHT22;2428;48.732;9.148;2023-06-22T06:18:39;21.40;99.90
4828;DHT22;2428;48.732;9.148;2023-06-22T06:21:04;21.40;99.90
4828;DHT22;2428;48.732;9.148;2023-06-22T06:23:30;21.50;99.90
4828;DHT22;2428;48.732;9.148;2023-06-22T06:25:55;21.50;99.90
4828;DHT22;2428;48.732;9.148;2023-06-22T06:28:22;21.50;99.90
4828;DHT22;2428;48.732;9.148;2023-06-22T06:30:47;21.60;99.90
4828;DHT22;2428;48.732;9.148;2023-06-22T06:33:13;21.60;99.90
4828;DHT22;2428;48.732;9.148;2023-06-22T06:35:39;21.60;99.90
4828;DHT22;2428;48.732;9.148;2023-06-22T06:38:04;21.60;99.90
4828;DHT22;2428;48.732;9.148;2023-06-22T06:40:30;21.70;99.90
4828;DHT22;2428;48.732;9.148;2023-06-22T06:42:56;21.80;99.90
4828;DHT22;2428;48.732;9.148;2023-06-22T06:45:23;21.80;99.90
4828;DHT22;2428;48.732;9.148;2023-06-22T06:47:49;21.90;99.90
4828;DHT22;2428;48.732;9.148;2023-06-22T06:50:16;22.00;99.90
4828;DHT22;2428;48.732;9.148;2023-06-22T06:52:41;22.00;99.90
4828;DHT22;2428;48.732;9.148;2023-06-22T06:55:07;22.00;99.90
4828;DHT22;2428;48.732;9.148;2023-06-22T06:57:37;22.10;99.90
4828;DHT22;2428;48.732;9.148;2023-06-22T07:00:04;22.20;99.90
4828;DHT22;2428;48.732;9.148;2023-06-22T07:02:35;22.30;99.90
4828;DHT22;2428;48.732;9.148;2023-06-22T07:05:00;22.40;99.90
4828;DHT22;2428;48.732;9.148;2023-06-22T07:07:28;22.40;99.90
4828;DHT22;2428;48.732;9.148;2023-06-22T07:09:53;22.50;99.90
4828;DHT22;2428;48.732;9.148;2023-06-22T07:12:19;22.50;99.90
4828;DHT22;2428;48.732;9.148;2023-06-22T07:14:44;22.60;99.90
4828;DHT22;2428;48.732;9.148;2023-06-22T07:17:10;22.70;99.90
4828;DHT22;2428;48.732;9.148;2023-06-22T07:19:35;22.70;99.90
4828;DHT22;2428;48.732;9.148;2023-06-22T07:22:01;22.80;99.90
4828;DHT22;2428;48.732;9.148;2023-06-22T07:24:27;22.90;99.90
4828;DHT22;2428;48.732;9.148;2023-06-22T07:26:52;22.90;99.90
4828;DHT22;2428;48.732;9.148;2023-06-22T07:29:19;22.90;99.90
4828;DHT22;2428;48.732;9.148;2023-06-22T07:31:46;23.00;99.90
4828;DHT22;2428;48.732;9.148;2023-06-22T07:34:12;23.10;99.90
4828;DHT22;2428;48.732;9.148;2023-06-22T07:36:38;23.20;99.90
4828;DHT22;2428;48.732;9.148;2023-06-22T07:39:04;23.20;99.90
4828;DHT22;2428;48.732;9.148;2023-06-22T07:41:30;23.30;99.90
4828;DHT22;2428;48.732;9.148;2023-06-22T07:43:56;23.30;99.90
4828;DHT22;2428;48.732;9.148;2023-06-22T07:46:22;23.40;99.90
4828;DHT22;2428;48.732;9.148;2023-06-22T07:48:48;23.40;99.90
4828;DHT22;2428;48.732;9.148;2023-06-22T07:51:13;23.50;99.90
4828;DHT22;2428;48.732;9.148;2023-06-22T07:53:43;23.60;99.90
4828;DHT22;2428;48.732;9.148;2023-06-22T07:56:12;23.80;99.90
4828;DHT22;2428;48.732;9.148;2023-06-22T07:58:38;23.90;99.90
4828;DHT22;2428;48.732;9.148;2023-06-22T08:01:04;24.00;99.90
4828;DHT22;2428;48.732;9.148;2023-06-22T08:03:29;24.10;99.90
4828;DHT22;2428;48.732;9.148;2023-06-22T08:05:55;24.10;99.90
4828;DHT22;2428;48.732;9.148;2023-06-22T08:08:21;24.30;99.90
4828;DHT22;2428;48.732;9.148;2023-06-22T08:10:46;24.20;99.90
4828;DHT22;2428;48.732;9.148;2023-06-22T08:13:12;24.30;99.90
4828;DHT22;2428;48.732;9.148;2023-06-22T08:15:38;24.40;99.90
4828;DHT22;2428;48.732;9.148;2023-06-22T08:18:03;24.50;99.90
4828;DHT22;2428;48.732;9.148;2023-06-22T08:20:29;24.60;99.90
4828;DHT22;2428;48.732;9.148;2023-06-22T08:22:55;24.70;99.90
4828;DHT22;2428;48.732;9.148;2023-06-22T08:25:21;24.70;99.90
4828;DHT22;2428;48.732;9.148;2023-06-22T08:27:47;24.80;99.90
4828;DHT22;2428;48.732;9.148;2023-06-22T08:30:16;24.90;99.90
4828;DHT22;2428;48.732;9.148;2023-06-22T08:32:44;24.90;99.90
4828;DHT22;2428;48.732;9.148;2023-06-22T08:35:09;24.80;99.90
4828;DHT22;2428;48.732;9.148;2023-06-22T08:37:35;24.90;99.90
4828;DHT22;2428;48.732;9.148;2023-06-22T08:40:02;25.10;99.90
4828;DHT22;2428;48.732;9.148;2023-06-22T08:42:33;24.90;99.90
4828;DHT22;2428;48.732;9.148;2023-06-22T08:44:59;24.90;99.90
4828;DHT22;2428;48.732;9.148;2023-06-22T08:47:24;25.00;99.90
4828;DHT22;2428;48.732;9.148;2023-06-22T08:49:50;25.00;99.90
4828;DHT22;2428;48.732;9.148;2023-06-22T08:52:17;25.10;99.90
4828;DHT22;2428;48.732;9.148;2023-06-22T08:54:42;25.30;99.90
4828;DHT22;2428;48.732;9.148;2023-06-22T08:57:08;25.50;99.90
4828;DHT22;2428;48.732;9.148;2023-06-22T08:59:33;25.50;99.90
4828;DHT22;2428;48.732;9.148;2023-06-22T09:01:59;25.80;99.90
4828;DHT22;2428;48.732;9.148;2023-06-22T09:04:24;25.90;99.90
4828;DHT22;2428;48.732;9.148;2023-06-22T09:06:50;25.80;99.90
4828;DHT22;2428;48.732;9.148;2023-06-22T09:09:18;25.90;99.90
4828;DHT22;2428;48.732;9.148;2023-06-22T09:11:43;25.80;99.90
4828;DHT22;2428;48.732;9.148;2023-06-22T09:14:10;26.00;99.90
4828;DHT22;2428;48.732;9.148;2023-06-22T09:16:36;26.10;99.90
4828;DHT22;2428;48.732;9.148;2023-06-22T09:19:02;26.20;99.90
4828;DHT22;2428;48.732;9.148;2023-06-22T09:21:27;26.00;99.90
4828;DHT22;2428;48.732;9.148;2023-06-22T09:23:53;25.80;99.90
4828;DHT22;2428;48.732;9.148;2023-06-22T09:26:20;25.80;99.90
4828;DHT22;2428;48.732;9.148;2023-06-22T09:28:46;25.90;99.90
4828;DHT22;2428;48.732;9.148;2023-06-22T09:31:11;25.90;99.90
4828;DHT22;2428;48.732;9.148;2023-06-22T09:33:37;26.00;99.90
4828;DHT22;2428;48.732;9.148;2023-06-22T09:36:09;26.10;99.90
4828;DHT22;2428;48.732;9.148;2023-06-22T09:38:37;26.20;99.90
4828;DHT22;2428;48.732;9.148;2023-06-22T09:41:04;26.50;99.90
4828;DHT22;2428;48.732;9.148;2023-06-22T09:43:32;26.80;99.90
4828;DHT22;2428;48.732;9.148;2023-06-22T09:46:00;27.20;99.90
4828;DHT22;2428;48.732;9.148;2023-06-22T09:48:27;27.50;99.90
4828;DHT22;2428;48.732;9.148;2023-06-22T09:50:54;27.60;99.90
4828;DHT22;2428;48.732;9.148;2023-06-22T09:53:20;27.90;99.90
4828;DHT22;2428;48.732;9.148;2023-06-22T09:55:45;28.10;99.90
4828;DHT22;2428;48.732;9.148;2023-06-22T09:58:11;28.10;99.90
4828;DHT22;2428;48.732;9.148;2023-06-22T10:00:36;28.30;99.90
4828;DHT22;2428;48.732;9.148;2023-06-22T10:03:03;28.50;99.90
4828;DHT22;2428;48.732;9.148;2023-06-22T10:05:29;28.70;99.90
4828;DHT22;2428;48.732;9.148;2023-06-22T10:07:54;28.80;99.90
4828;DHT22;2428;48.732;9.148;2023-06-22T10:10:20;28.60;99.90
4828;DHT22;2428;48.732;9.148;2023-06-22T10:12:47;28.40;99.90
4828;DHT22;2428;48.732;9.148;2023-06-22T10:15:14;28.30;99.90
4828;DHT22;2428;48.732;9.148;2023-06-22T10:17:39;28.10;99.90
4828;DHT22;2428;48.732;9.148;2023-06-22T10:20:06;28.00;99.90
4828;DHT22;2428;48.732;9.148;2023-06-22T10:22:42;28.10;99.90
4828;DHT22;2428;48.732;9.148;2023-06-22T10:25:10;28.40;99.90
4828;DHT22;2428;48.732;9.148;2023-06-22T10:27:36;28.60;99.90
4828;DHT22;2428;48.732;9.148;2023-06-22T10:30:06;28.80;99.90
4828;DHT22;2428;48.732;9.148;2023-06-22T10:32:31;29.40;99.90
4828;DHT22;2428;48.732;9.148;2023-06-22T10:34:57;30.40;99.90
4828;DHT22;2428;48.732;9.148;2023-06-22T10:37:22;31.20;99.90
4828;DHT22;2428;48.732;9.148;2023-06-22T10:39:48;31.90;99.90
4828;DHT22;2428;48.732;9.148;2023-06-22T10:42:14;32.50;99.90
4828;DHT22;2428;48.732;9.148;2023-06-22T10:44:40;33.30;99.90
4828;DHT22;2428;48.732;9.148;2023-06-22T10:47:08;33.80;99.90
4828;DHT22;2428;48.732;9.148;2023-06-22T10:49:34;34.10;99.90
4828;DHT22;2428;48.732;9.148;2023-06-22T10:51:59;33.70;99.90
4828;DHT22;2428;48.732;9.148;2023-06-22T10:54:25;32.50;99.90
4828;DHT22;2428;48.732;9.148;2023-06-22T10:56:50;31.60;99.90
4828;DHT22;2428;48.732;9.148;2023-06-22T10:59:16;31.30;99.90
4828;DHT22;2428;48.732;9.148;2023-06-22T11:01:41;30.90;99.90
4828;DHT22;2428;48.732;9.148;2023-06-22T11:04:07;30.50;99.90
4828;DHT22;2428;48.732;9.148;2023-06-22T11:06:33;30.20;99.90
4828;DHT22;2428;48.732;9.148;2023-06-22T11:08:58;30.20;99.90
4828;DHT22;2428;48.732;9.148;2023-06-22T11:11:25;29.90;99.90
4828;DHT22;2428;48.732;9.148;2023-06-22T11:13:52;29.90;99.90
4828;DHT22;2428;48.732;9.148;2023-06-22T11:16:18;29.80;99.90
4828;DHT22;2428;48.732;9.148;2023-06-22T11:18:43;29.40;99.90
4828;DHT22;2428;48.732;9.148;2023-06-22T11:21:09;29.20;99.90
4828;DHT22;2428;48.732;9.148;2023-06-22T11:23:34;29.00;99.90
4828;DHT22;2428;48.732;9.148;2023-06-22T11:26:00;28.90;99.90
4828;DHT22;2428;48.732;9.148;2023-06-22T11:28:25;28.90;99.90
4828;DHT22;2428;48.732;9.148;2023-06-22T11:30:51;29.00;99.90
4828;DHT22;2428;48.732;9.148;2023-06-22T11:33:17;28.90;99.90
4828;DHT22;2428;48.732;9.148;2023-06-22T11:35:42;28.70;99.90
4828;DHT22;2428;48.732;9.148;2023-06-22T11:38:08;28.80;99.90
4828;DHT22;2428;48.732;9.148;2023-06-22T11:40:34;29.00;99.90
4828;DHT22;2428;48.732;9.148;2023-06-22T11:42:59;29.30;99.90
4828;DHT22;2428;48.732;9.148;2023-06-22T11:45:25;29.70;99.90
4828;DHT22;2428;48.732;9.148;2023-06-22T11:47:50;30.20;99.90
4828;DHT22;2428;48.732;9.148;2023-06-22T11:50:16;30.80;99.90
4828;DHT22;2428;48.732;9.148;2023-06-22T11:52:41;30.90;99.90
4828;DHT22;2428;48.732;9.148;2023-06-22T11:55:07;30.80;99.90
4828;DHT22;2428;48.732;9.148;2023-06-22T11:57:35;30.70;99.90
4828;DHT22;2428;48.732;9.148;2023-06-22T12:00:01;30.50;99.90
4828;DHT22;2428;48.732;9.148;2023-06-22T12:02:31;30.30;99.90
4828;DHT22;2428;48.732;9.148;2023-06-22T12:04:57;30.40;99.90
4828;DHT22;2428;48.732;9.148;2023-06-22T12:07:23;30.20;99.90
4828;DHT22;2428;48.732;9.148;2023-06-22T12:09:49;30.00;99.90
4828;DHT22;2428;48.732;9.148;2023-06-22T12:12:15;29.90;99.90
4828;DHT22;2428;48.732;9.148;2023-06-22T12:14:40;29.90;99.90
4828;DHT22;2428;48.732;9.148;2023-06-22T12:17:06;29.80;99.90
4828;DHT22;2428;48.732;9.148;2023-06-22T12:19:32;29.80;99.90
4828;DHT22;2428;48.732;9.148;2023-06-22T12:21:57;29.60;99.90
4828;DHT22;2428;48.732;9.148;2023-06-22T12:24:23;29.40;99.90
4828;DHT22;2428;48.732;9.148;2023-06-22T12:26:49;29.30;99.90
4828;DHT22;2428;48.732;9.148;2023-06-22T12:29:14;29.20;99.90
4828;DHT22;2428;48.732;9.148;2023-06-22T12:31:40;29.30;99.90
4828;DHT22;2428;48.732;9.148;2023-06-22T12:34:06;29.20;99.90
4828;DHT22;2428;48.732;9.148;2023-06-22T12:36:32;29.10;99.90
4828;DHT22;2428;48.732;9.148;2023-06-22T12:38:58;28.90;99.90
4828;DHT22;2428;48.732;9.148;2023-06-22T12:41:23;28.80;99.90
4828;DHT22;2428;48.732;9.148;2023-06-22T12:43:49;28.70;99.90
4828;DHT22;2428;48.732;9.148;2023-06-22T12:46:14;28.70;99.90
4828;DHT22;2428;48.732;9.148;2023-06-22T12:48:40;28.50;99.90
4828;DHT22;2428;48.732;9.148;2023-06-22T12:51:08;28.40;99.90
4828;DHT22;2428;48.732;9.148;2023-06-22T12:53:35;28.40;99.90
4828;DHT22;2428;48.732;9.148;2023-06-22T12:56:00;28.40;99.90
4828;DHT22;2428;48.732;9.148;2023-06-22T12:58:26;28.40;99.90
4828;DHT22;2428;48.732;9.148;2023-06-22T13:00:51;28.40;99.90
4828;DHT22;2428;48.732;9.148;2023-06-22T13:03:17;28.50;99.90
4828;DHT22;2428;48.732;9.148;2023-06-22T13:05:42;28.50;99.90
4828;DHT22;2428;48.732;9.148;2023-06-22T13:08:08;28.50;99.90
4828;DHT22;2428;48.732;9.148;2023-06-22T13:10:34;28.40;99.90
4828;DHT22;2428;48.732;9.148;2023-06-22T13:12:59;28.40;99.90
4828;DHT22;2428;48.732;9.148;2023-06-22T13:15:28;28.20;99.90
4828;DHT22;2428;48.732;9.148;2023-06-22T13:17:55;28.20;99.90
4828;DHT22;2428;48.732;9.148;2023-06-22T13:20:21;28.20;99.90
4828;DHT22;2428;48.732;9.148;2023-06-22T13:22:46;28.30;99.90
4828;DHT22;2428;48.732;9.148;2023-06-22T13:25:12;28.40;99.90
4828;DHT22;2428;48.732;9.148;2023-06-22T13:27:41;28.60;99.90
4828;DHT22;2428;48.732;9.148;2023-06-22T13:30:08;28.60;99.90
4828;DHT22;2428;48.732;9.148;2023-06-22T13:32:34;28.80;99.90
4828;DHT22;2428;48.732;9.148;2023-06-22T13:34:59;28.70;99.90
4828;DHT22;2428;48.732;9.148;2023-06-22T13:37:26;28.80;99.90
4828;DHT22;2428;48.732;9.148;2023-06-22T13:39:52;28.90;99.90
4828;DHT22;2428;48.732;9.148;2023-06-22T13:42:18;28.80;99.90
4828;DHT22;2428;48.732;9.148;2023-06-22T13:44:43;29.00;99.90
4828;DHT22;2428;48.732;9.148;2023-06-22T13:47:09;28.90;99.90
4828;DHT22;2428;48.732;9.148;2023-06-22T13:49:35;29.00;99.90
4828;DHT22;2428;48.732;9.148;2023-06-22T13:52:00;28.90;99.90
4828;DHT22;2428;48.732;9.148;2023-06-22T13:54:26;29.00;99.90
4828;DHT22;2428;48.732;9.148;2023-06-22T13:56:52;28.80;99.90
4828;DHT22;2428;48.732;9.148;2023-06-22T13:59:18;28.90;99.90
4828;DHT22;2428;48.732;9.148;2023-06-22T14:01:45;28.90;99.90
4828;DHT22;2428;48.732;9.148;2023-06-22T14:04:10;28.90;99.90
4828;DHT22;2428;48.732;9.148;2023-06-22T14:06:36;29.00;99.90
4828;DHT22;2428;48.732;9.148;2023-06-22T14:09:01;29.20;99.90
4828;DHT22;2428;48.732;9.148;2023-06-22T14:11:28;29.40;99.90
4828;DHT22;2428;48.732;9.148;2023-06-22T14:13:53;29.60;99.90
4828;DHT22;2428;48.732;9.148;2023-06-22T14:16:19;29.80;99.90
4828;DHT22;2428;48.732;9.148;2023-06-22T14:18:45;30.10;99.90
4828;DHT22;2428;48.732;9.148;2023-06-22T14:21:10;30.20;99.90
4828;DHT22;2428;48.732;9.148;2023-06-22T14:23:36;30.20;99.90
4828;DHT22;2428;48.732;9.148;2023-06-22T14:26:03;30.30;99.90
4828;DHT22;2428;48.732;9.148;2023-06-22T14:28:29;30.30;99.90
4828;DHT22;2428;48.732;9.148;2023-06-22T14:30:54;30.00;99.90
4828;DHT22;2428;48.732;9.148;2023-06-22T14:33:21;29.70;99.90
4828;DHT22;2428;48.732;9.148;2023-06-22T14:35:47;29.60;99.90
4828;DHT22;2428;48.732;9.148;2023-06-22T14:38:13;29.70;99.90
4828;DHT22;2428;48.732;9.148;2023-06-22T14:40:38;29.80;98.60
4828;DHT22;2428;48.732;9.148;2023-06-22T14:43:04;29.90;95.10
4828;DHT22;2428;48.732;9.148;2023-06-22T14:45:29;30.00;95.60
4828;DHT22;2428;48.732;9.148;2023-06-22T14:47:55;30.10;94.60
4828;DHT22;2428;48.732;9.148;2023-06-22T14:50:20;30.10;93.10
4828;DHT22;2428;48.732;9.148;2023-06-22T14:52:46;30.10;91.90
4828;DHT22;2428;48.732;9.148;2023-06-22T14:55:12;30.10;90.70
4828;DHT22;2428;48.732;9.148;2023-06-22T14:57:37;30.00;87.50
4828;DHT22;2428;48.732;9.148;2023-06-22T15:00:03;30.00;86.50
4828;DHT22;2428;48.732;9.148;2023-06-22T15:02:29;29.90;85.80
4828;DHT22;2428;48.732;9.148;2023-06-22T15:04:55;29.70;84.60
4828;DHT22;2428;48.732;9.148;2023-06-22T15:07:21;29.60;83.80
4828;DHT22;2428;48.732;9.148;2023-06-22T15:09:46;29.60;85.70
4828;DHT22;2428;48.732;9.148;2023-06-22T15:12:12;29.70;85.10
4828;DHT22;2428;48.732;9.148;2023-06-22T15:14:40;29.60;84.70
4828;DHT22;2428;48.732;9.148;2023-06-22T15:17:06;29.60;83.60
4828;DHT22;2428;48.732;9.148;2023-06-22T15:19:35;29.70;84.40
4828;DHT22;2428;48.732;9.148;2023-06-22T15:22:01;29.70;85.10
4828;DHT22;2428;48.732;9.148;2023-06-22T15:24:26;29.90;82.80
4828;DHT22;2428;48.732;9.148;2023-06-22T15:26:52;30.00;83.30
4828;DHT22;2428;48.732;9.148;2023-06-22T15:29:17;30.00;81.70
4828;DHT22;2428;48.732;9.148;2023-06-22T15:31:43;29.80;81.60
4828;DHT22;2428;48.732;9.148;2023-06-22T15:34:08;29.80;83.50
4828;DHT22;2428;48.732;9.148;2023-06-22T15:36:34;29.80;83.60
4828;DHT22;2428;48.732;9.148;2023-06-22T15:39:00;29.80;82.90
4828;DHT22;2428;48.732;9.148;2023-06-22T15:41:26;29.70;82.30
4828;DHT22;2428;48.732;9.148;2023-06-22T15:43:53;29.60;83.10
4828;DHT22;2428;48.732;9.148;2023-06-22T15:46:19;29.60;81.40
4828;DHT22;2428;48.732;9.148;2023-06-22T15:48:44;29.60;81.80
4828;DHT22;2428;48.732;9.148;2023-06-22T15:51:10;29.50;82.50
4828;DHT22;2428;48.732;9.148;2023-06-22T15:53:36;29.40;83.60
4828;DHT22;2428;48.732;9.148;2023-06-22T15:56:02;29.30;83.90
4828;DHT22;2428;48.732;9.148;2023-06-22T15:58:29;29.30;84.40